sensor_id;sensor_type;location;lat;lon;timestamp;temperature;humidity
30893;DHT22;17595;50.884;4.346;2022-12-18T00:01:20;1.40;99.90
30893;DHT22;17595;50.884;4.346;2022-12-18T00:03:46;1.30;99.90
30893;DHT22;17595;50.884;4.346;2022-12-18T00:06:12;1.30;99.90
30893;DHT22;17595;50.884;4.346;2022-12-18T00:08:39;1.30;99.90
30893;DHT22;17595;50.884;4.346;2022-12-18T00:11:07;1.20;99.90
30893;DHT22;17595;50.884;4.346;2022-12-18T00:13:33;1.10;99.90
30893;DHT22;17595;50.884;4.346;2022-12-18T00:16:07;1.10;99.90
30893;DHT22;17595;50.884;4.346;2022-12-18T00:18:33;1.10;99.90
30893;DHT22;17595;50.884;4.346;2022-12-18T00:21:01;1.20;99.90
30893;DHT22;17595;50.884;4.346;2022-12-18T00:23:27;1.20;99.90
30893;DHT22;17595;50.884;4.346;2022-12-18T00:25:53;1.30;99.90
30893;DHT22;17595;50.884;4.346;2022-12-18T00:28:19;1.30;99.90
30893;DHT22;17595;50.884;4.346;2022-12-18T00:30:44;1.40;99.90
30893;DHT22;17595;50.884;4.346;2022-12-18T00:33:10;1.40;99.90
30893;DHT22;17595;50.884;4.346;2022-12-18T00:35:35;1.40;99.90
30893;DHT22;17595;50.884;4.346;2022-12-18T00:38:01;1.40;99.90
30893;DHT22;17595;50.884;4.346;2022-12-18T00:40:27;1.40;99.90
30893;DHT22;17595;50.884;4.346;2022-12-18T00:42:52;1.40;99.90
30893;DHT22;17595;50.884;4.346;2022-12-18T00:45:22;1.40;99.90
30893;DHT22;17595;50.884;4.346;2022-12-18T00:47:49;1.30;99.90
30893;DHT22;17595;50.884;4.346;2022-12-18T00:50:14;1.20;99.90
30893;DHT22;17595;50.884;4.346;2022-12-18T00:52:40;1.00;99.90
30893;DHT22;17595;50.884;4.346;2022-12-18T00:55:07;1.00;99.90
30893;DHT22;17595;50.884;4.346;2022-12-18T00:57:33;1.00;99.90
30893;DHT22;17595;50.884;4.346;2022-12-18T00:59:58;1.00;99.90
30893;DHT22;17595;50.884;4.346;2022-12-18T01:02:24;1.00;99.90
30893;DHT22;17595;50.884;4.346;2022-12-18T01:04:50;1.00;99.90
30893;DHT22;17595;50.884;4.346;2022-12-18T01:07:15;1.00;99.90
30893;DHT22;17595;50.884;4.346;2022-12-18T01:09:41;1.10;99.90
30893;DHT22;17595;50.884;4.346;2022-12-18T01:12:06;1.10;99.90
30893;DHT22;17595;50.884;4.346;2022-12-18T01:14:32;1.10;99.90
30893;DHT22;17595;50.884;4.346;2022-12-18T01:16:58;1.10;99.90
30893;DHT22;17595;50.884;4.346;2022-12-18T01:19:23;1.10;99.90
30893;DHT22;17595;50.884;4.346;2022-12-18T01:21:49;1.10;99.90
30893;DHT22;17595;50.884;4.346;2022-12-18T01:24:15;1.10;99.90
30893;DHT22;17595;50.884;4.346;2022-12-18T01:26:41;1.00;99.90
30893;DHT22;17595;50.884;4.346;2022-12-18T01:29:06;1.00;99.90
30893;DHT22;17595;50.884;4.346;2022-12-18T01:31:33;1.00;99.90
30893;DHT22;17595;50.884;4.346;2022-12-18T01:34:03;1.00;99.90
30893;DHT22;17595;50.884;4.346;2022-12-18T01:36:31;0.90;99.90
30893;DHT22;17595;50.884;4.346;2022-12-18T01:39:05;0.90;99.90
30893;DHT22;17595;50.884;4.346;2022-12-18T01:41:32;0.80;99.90
30893;DHT22;17595;50.884;4.346;2022-12-18T01:47:49;0.70;99.90
30893;DHT22;17595;50.884;4.346;2022-12-18T01:53:00;0.60;99.90
30893;DHT22;17595;50.884;4.346;2022-12-18T01:55:30;0.60;99.90
30893;DHT22;17595;50.884;4.346;2022-12-18T01:57:59;0.60;99.90
30893;DHT22;17595;50.884;4.346;2022-12-18T02:00:25;0.70;99.90
30893;DHT22;17595;50.884;4.346;2022-12-18T02:02:52;0.80;99.90
30893;DHT22;17595;50.884;4.346;2022-12-18T02:05:29;0.80;99.90
30893;DHT22;17595;50.884;4.346;2022-12-18T02:08:30;0.80;99.90
30893;DHT22;17595;50.884;4.346;2022-12-18T02:11:04;0.80;99.90
30893;DHT22;17595;50.884;4.346;2022-12-18T02:13:57;0.80;99.90
30893;DHT22;17595;50.884;4.346;2022-12-18T02:18:58;0.70;99.90
30893;DHT22;17595;50.884;4.346;2022-12-18T02:21:47;0.60;99.90
30893;DHT22;17595;50.884;4.346;2022-12-18T02:26:45;0.80;99.90
30893;DHT22;17595;50.884;4.346;2022-12-18T02:29:20;0.80;99.90
30893;DHT22;17595;50.884;4.346;2022-12-18T02:31:51;0.80;99.90
30893;DHT22;17595;50.884;4.346;2022-12-18T02:34:18;0.80;99.90
30893;DHT22;17595;50.884;4.346;2022-12-18T02:36:46;0.80;99.90
30893;DHT22;17595;50.884;4.346;2022-12-18T02:39:14;0.80;99.90
30893;DHT22;17595;50.884;4.346;2022-12-18T02:41:40;0.70;99.90
30893;DHT22;17595;50.884;4.346;2022-12-18T02:44:11;0.70;99.90
30893;DHT22;17595;50.884;4.346;2022-12-18T02:46:45;0.60;99.90
30893;DHT22;17595;50.884;4.346;2022-12-18T02:57:45;0.80;99.90
30893;DHT22;17595;50.884;4.346;2022-12-18T03:00:24;0.80;99.90
30893;DHT22;17595;50.884;4.346;2022-12-18T03:02:59;0.80;99.90
30893;DHT22;17595;50.884;4.346;2022-12-18T03:05:41;0.80;99.90
30893;DHT22;17595;50.884;4.346;2022-12-18T03:08:18;0.70;99.90
30893;DHT22;17595;50.884;4.346;2022-12-18T03:10:51;0.70;99.90
30893;DHT22;17595;50.884;4.346;2022-12-18T03:13:25;0.70;99.90
30893;DHT22;17595;50.884;4.346;2022-12-18T03:15:59;0.70;99.90
30893;DHT22;17595;50.884;4.346;2022-12-18T03:18:38;0.70;99.90
30893;DHT22;17595;50.884;4.346;2022-12-18T03:21:06;0.70;99.90
30893;DHT22;17595;50.884;4.346;2022-12-18T03:23:38;0.70;99.90
30893;DHT22;17595;50.884;4.346;2022-12-18T03:26:09;0.60;99.90
30893;DHT22;17595;50.884;4.346;2022-12-18T03:28:38;0.60;99.90
30893;DHT22;17595;50.884;4.346;2022-12-18T03:31:07;0.50;99.90
30893;DHT22;17595;50.884;4.346;2022-12-18T03:33:47;0.60;99.90
30893;DHT22;17595;50.884;4.346;2022-12-18T03:36:16;0.50;99.90
30893;DHT22;17595;50.884;4.346;2022-12-18T03:38:42;0.60;99.90
30893;DHT22;17595;50.884;4.346;2022-12-18T03:42:01;0.60;99.90
30893;DHT22;17595;50.884;4.346;2022-12-18T03:49:50;0.70;99.90
30893;DHT22;17595;50.884;4.346;2022-12-18T03:52:22;0.60;99.90
30893;DHT22;17595;50.884;4.346;2022-12-18T03:54:50;0.60;99.90
30893;DHT22;17595;50.884;4.346;2022-12-18T03:57:19;0.60;99.90
30893;DHT22;17595;50.884;4.346;2022-12-18T03:59:47;0.60;99.90
30893;DHT22;17595;50.884;4.346;2022-12-18T04:02:16;0.60;99.90
30893;DHT22;17595;50.884;4.346;2022-12-18T04:04:43;0.50;99.90
30893;DHT22;17595;50.884;4.346;2022-12-18T04:07:10;0.50;99.90
30893;DHT22;17595;50.884;4.346;2022-12-18T04:09:38;0.60;99.90
30893;DHT22;17595;50.884;4.346;2022-12-18T04:12:04;0.60;99.90
30893;DHT22;17595;50.884;4.346;2022-12-18T04:14:30;0.60;99.90
30893;DHT22;17595;50.884;4.346;2022-12-18T04:17:01;0.50;99.90
30893;DHT22;17595;50.884;4.346;2022-12-18T04:19:27;0.50;99.90
30893;DHT22;17595;50.884;4.346;2022-12-18T04:21:52;0.60;99.90
30893;DHT22;17595;50.884;4.346;2022-12-18T04:24:18;0.60;99.90
30893;DHT22;17595;50.884;4.346;2022-12-18T04:26:43;0.60;99.90
30893;DHT22;17595;50.884;4.346;2022-12-18T04:29:09;0.60;99.90
30893;DHT22;17595;50.884;4.346;2022-12-18T04:31:35;0.60;99.90
30893;DHT22;17595;50.884;4.346;2022-12-18T04:34:00;0.60;99.90
30893;DHT22;17595;50.884;4.346;2022-12-18T04:36:26;0.60;99.90
30893;DHT22;17595;50.884;4.346;2022-12-18T04:38:52;0.50;99.90
30893;DHT22;17595;50.884;4.346;2022-12-18T04:41:17;0.50;99.90
30893;DHT22;17595;50.884;4.346;2022-12-18T04:43:43;0.40;99.90
30893;DHT22;17595;50.884;4.346;2022-12-18T04:46:09;0.40;99.90
30893;DHT22;17595;50.884;4.346;2022-12-18T04:48:35;0.30;99.90
30893;DHT22;17595;50.884;4.346;2022-12-18T04:51:01;0.30;99.90
30893;DHT22;17595;50.884;4.346;2022-12-18T04:53:26;0.20;99.90
30893;DHT22;17595;50.884;4.346;2022-12-18T04:56:05;0.30;99.90
30893;DHT22;17595;50.884;4.346;2022-12-18T04:58:31;0.40;99.90
30893;DHT22;17595;50.884;4.346;2022-12-18T05:00:57;0.50;99.90
30893;DHT22;17595;50.884;4.346;2022-12-18T05:03:23;0.50;99.90
30893;DHT22;17595;50.884;4.346;2022-12-18T05:05:51;0.50;99.90
30893;DHT22;17595;50.884;4.346;2022-12-18T05:08:17;0.50;99.90
30893;DHT22;17595;50.884;4.346;2022-12-18T05:10:43;0.60;99.90
30893;DHT22;17595;50.884;4.346;2022-12-18T05:13:09;0.50;99.90
30893;DHT22;17595;50.884;4.346;2022-12-18T05:15:34;0.50;99.90
30893;DHT22;17595;50.884;4.346;2022-12-18T05:18:01;0.40;99.90
30893;DHT22;17595;50.884;4.346;2022-12-18T05:20:27;0.40;99.90
30893;DHT22;17595;50.884;4.346;2022-12-18T05:22:54;0.40;99.90
30893;DHT22;17595;50.884;4.346;2022-12-18T05:25:20;0.30;99.90
30893;DHT22;17595;50.884;4.346;2022-12-18T05:27:46;0.30;99.90
30893;DHT22;17595;50.884;4.346;2022-12-18T05:30:12;0.30;99.90
30893;DHT22;17595;50.884;4.346;2022-12-18T05:32:38;0.30;99.90
30893;DHT22;17595;50.884;4.346;2022-12-18T05:35:06;0.30;99.90
30893;DHT22;17595;50.884;4.346;2022-12-18T05:37:32;0.30;99.90
30893;DHT22;17595;50.884;4.346;2022-12-18T05:39:58;0.30;99.90
30893;DHT22;17595;50.884;4.346;2022-12-18T05:42:23;0.30;99.90
30893;DHT22;17595;50.884;4.346;2022-12-18T05:44:49;0.30;99.90
30893;DHT22;17595;50.884;4.346;2022-12-18T05:47:15;0.40;99.90
30893;DHT22;17595;50.884;4.346;2022-12-18T05:49:41;0.40;99.90
30893;DHT22;17595;50.884;4.346;2022-12-18T05:52:06;0.40;99.90
30893;DHT22;17595;50.884;4.346;2022-12-18T05:54:32;0.40;99.90
30893;DHT22;17595;50.884;4.346;2022-12-18T05:56:58;0.40;99.90
30893;DHT22;17595;50.884;4.346;2022-12-18T05:59:24;0.40;99.90
30893;DHT22;17595;50.884;4.346;2022-12-18T06:01:50;0.40;99.90
30893;DHT22;17595;50.884;4.346;2022-12-18T06:04:15;0.50;99.90
30893;DHT22;17595;50.884;4.346;2022-12-18T06:06:41;0.40;99.90
30893;DHT22;17595;50.884;4.346;2022-12-18T06:09:06;0.40;99.90
30893;DHT22;17595;50.884;4.346;2022-12-18T06:11:36;0.40;99.90
30893;DHT22;17595;50.884;4.346;2022-12-18T06:14:03;0.40;99.90
30893;DHT22;17595;50.884;4.346;2022-12-18T06:16:29;0.30;99.90
30893;DHT22;17595;50.884;4.346;2022-12-18T06:18:59;0.30;99.90
30893;DHT22;17595;50.884;4.346;2022-12-18T06:21:25;0.30;99.90
30893;DHT22;17595;50.884;4.346;2022-12-18T06:23:50;0.20;99.90
30893;DHT22;17595;50.884;4.346;2022-12-18T06:26:16;0.20;99.90
30893;DHT22;17595;50.884;4.346;2022-12-18T06:28:42;0.20;99.90
30893;DHT22;17595;50.884;4.346;2022-12-18T06:31:08;0.30;99.90
30893;DHT22;17595;50.884;4.346;2022-12-18T06:33:34;0.20;99.90
30893;DHT22;17595;50.884;4.346;2022-12-18T06:36:06;0.20;99.90
30893;DHT22;17595;50.884;4.346;2022-12-18T06:38:33;0.30;99.90
30893;DHT22;17595;50.884;4.346;2022-12-18T06:40:59;0.30;99.90
30893;DHT22;17595;50.884;4.346;2022-12-18T06:43:25;0.30;99.90
30893;DHT22;17595;50.884;4.346;2022-12-18T06:45:50;0.30;99.90
30893;DHT22;17595;50.884;4.346;2022-12-18T06:48:19;0.40;99.90
30893;DHT22;17595;50.884;4.346;2022-12-18T06:50:45;0.50;99.90
30893;DHT22;17595;50.884;4.346;2022-12-18T06:53:11;0.50;99.90
30893;DHT22;17595;50.884;4.346;2022-12-18T06:55:37;0.60;99.90
30893;DHT22;17595;50.884;4.346;2022-12-18T06:58:02;0.60;99.90
30893;DHT22;17595;50.884;4.346;2022-12-18T07:00:28;0.60;99.90
30893;DHT22;17595;50.884;4.346;2022-12-18T07:02:53;0.60;99.90
30893;DHT22;17595;50.884;4.346;2022-12-18T07:05:19;0.60;99.90
30893;DHT22;17595;50.884;4.346;2022-12-18T07:07:44;0.60;99.90
30893;DHT22;17595;50.884;4.346;2022-12-18T07:10:10;0.60;99.90
30893;DHT22;17595;50.884;4.346;2022-12-18T07:12:36;0.60;99.90
30893;DHT22;17595;50.884;4.346;2022-12-18T07:15:02;0.50;99.90
30893;DHT22;17595;50.884;4.346;2022-12-18T07:17:28;0.50;99.90
30893;DHT22;17595;50.884;4.346;2022-12-18T07:19:54;0.60;99.90
30893;DHT22;17595;50.884;4.346;2022-12-18T07:22:20;0.60;99.90
30893;DHT22;17595;50.884;4.346;2022-12-18T07:24:46;0.60;99.90
30893;DHT22;17595;50.884;4.346;2022-12-18T07:27:14;0.60;99.90
30893;DHT22;17595;50.884;4.346;2022-12-18T07:29:40;0.50;99.90
30893;DHT22;17595;50.884;4.346;2022-12-18T07:32:05;0.50;99.90
30893;DHT22;17595;50.884;4.346;2022-12-18T07:34:32;0.50;99.90
30893;DHT22;17595;50.884;4.346;2022-12-18T07:36:58;0.60;99.90
30893;DHT22;17595;50.884;4.346;2022-12-18T07:39:23;0.60;99.90
30893;DHT22;17595;50.884;4.346;2022-12-18T07:41:49;0.60;99.90
30893;DHT22;17595;50.884;4.346;2022-12-18T07:44:35;0.50;99.90
30893;DHT22;17595;50.884;4.346;2022-12-18T07:47:00;0.50;99.90
30893;DHT22;17595;50.884;4.346;2022-12-18T07:49:27;0.50;99.90
30893;DHT22;17595;50.884;4.346;2022-12-18T07:51:55;0.50;99.90
30893;DHT22;17595;50.884;4.346;2022-12-18T07:54:22;0.50;99.90
30893;DHT22;17595;50.884;4.346;2022-12-18T07:56:48;0.50;99.90
30893;DHT22;17595;50.884;4.346;2022-12-18T07:59:13;0.40;99.90
30893;DHT22;17595;50.884;4.346;2022-12-18T08:01:39;0.50;99.90
30893;DHT22;17595;50.884;4.346;2022-12-18T08:04:04;0.50;99.90
30893;DHT22;17595;50.884;4.346;2022-12-18T08:06:30;0.50;99.90
30893;DHT22;17595;50.884;4.346;2022-12-18T08:08:56;0.60;99.90
30893;DHT22;17595;50.884;4.346;2022-12-18T08:11:24;0.60;99.90
30893;DHT22;17595;50.884;4.346;2022-12-18T08:13:50;0.60;99.90
30893;DHT22;17595;50.884;4.346;2022-12-18T08:16:17;0.70;99.90
30893;DHT22;17595;50.884;4.346;2022-12-18T08:18:43;0.80;99.90
30893;DHT22;17595;50.884;4.346;2022-12-18T08:23:35;0.90;99.90
30893;DHT22;17595;50.884;4.346;2022-12-18T08:26:01;1.00;99.90
30893;DHT22;17595;50.884;4.346;2022-12-18T08:28:27;1.00;99.90
30893;DHT22;17595;50.884;4.346;2022-12-18T08:30:53;1.00;99.90
30893;DHT22;17595;50.884;4.346;2022-12-18T08:33:18;1.00;99.90
30893;DHT22;17595;50.884;4.346;2022-12-18T08:35:45;1.00;99.90
30893;DHT22;17595;50.884;4.346;2022-12-18T08:38:10;1.10;99.90
30893;DHT22;17595;50.884;4.346;2022-12-18T08:40:36;1.10;99.90
30893;DHT22;17595;50.884;4.346;2022-12-18T08:43:02;1.10;99.90
30893;DHT22;17595;50.884;4.346;2022-12-18T08:45:46;1.20;99.90
30893;DHT22;17595;50.884;4.346;2022-12-18T08:48:11;1.20;99.90
30893;DHT22;17595;50.884;4.346;2022-12-18T08:50:37;1.20;99.90
30893;DHT22;17595;50.884;4.346;2022-12-18T08:53:03;1.30;99.90
30893;DHT22;17595;50.884;4.346;2022-12-18T08:55:28;1.30;99.90
30893;DHT22;17595;50.884;4.346;2022-12-18T08:57:54;1.40;99.90
30893;DHT22;17595;50.884;4.346;2022-12-18T09:00:20;1.40;99.90
30893;DHT22;17595;50.884;4.346;2022-12-18T09:02:45;1.50;99.90
30893;DHT22;17595;50.884;4.346;2022-12-18T09:05:11;1.50;99.90
30893;DHT22;17595;50.884;4.346;2022-12-18T09:07:37;1.70;99.90
30893;DHT22;17595;50.884;4.346;2022-12-18T09:10:03;1.80;99.90
30893;DHT22;17595;50.884;4.346;2022-12-18T09:12:29;2.00;99.90
30893;DHT22;17595;50.884;4.346;2022-12-18T09:14:54;2.00;99.90
30893;DHT22;17595;50.884;4.346;2022-12-18T09:17:21;2.00;99.90
30893;DHT22;17595;50.884;4.346;2022-12-18T09:19:47;2.10;99.90
30893;DHT22;17595;50.884;4.346;2022-12-18T09:22:12;2.20;99.90
30893;DHT22;17595;50.884;4.346;2022-12-18T09:24:38;2.40;99.90
30893;DHT22;17595;50.884;4.346;2022-12-18T09:27:04;2.40;99.90
30893;DHT22;17595;50.884;4.346;2022-12-18T09:29:29;2.60;99.90
30893;DHT22;17595;50.884;4.346;2022-12-18T09:31:55;2.50;99.90
30893;DHT22;17595;50.884;4.346;2022-12-18T09:34:20;2.60;99.90
30893;DHT22;17595;50.884;4.346;2022-12-18T09:36:47;2.70;99.90
30893;DHT22;17595;50.884;4.346;2022-12-18T09:39:13;2.80;99.90
30893;DHT22;17595;50.884;4.346;2022-12-18T09:41:47;3.00;99.90
30893;DHT22;17595;50.884;4.346;2022-12-18T09:44:39;3.00;99.90
30893;DHT22;17595;50.884;4.346;2022-12-18T09:49:43;3.20;99.90
30893;DHT22;17595;50.884;4.346;2022-12-18T09:52:34;3.10;99.90
30893;DHT22;17595;50.884;4.346;2022-12-18T09:55:03;3.20;99.90
30893;DHT22;17595;50.884;4.346;2022-12-18T09:57:32;3.30;99.90
30893;DHT22;17595;50.884;4.346;2022-12-18T10:00:13;3.20;99.90
30893;DHT22;17595;50.884;4.346;2022-12-18T10:02:40;3.20;99.90
30893;DHT22;17595;50.884;4.346;2022-12-18T10:05:17;3.30;99.90
30893;DHT22;17595;50.884;4.346;2022-12-18T10:10:46;3.20;99.90
30893;DHT22;17595;50.884;4.346;2022-12-18T10:13:39;3.30;99.90
30893;DHT22;17595;50.884;4.346;2022-12-18T10:16:17;3.40;99.90
30893;DHT22;17595;50.884;4.346;2022-12-18T10:27:22;3.60;99.90
30893;DHT22;17595;50.884;4.346;2022-12-18T10:29:48;3.60;99.90
30893;DHT22;17595;50.884;4.346;2022-12-18T10:32:20;3.70;99.90
30893;DHT22;17595;50.884;4.346;2022-12-18T10:34:47;3.70;99.90
30893;DHT22;17595;50.884;4.346;2022-12-18T10:37:18;3.80;99.90
30893;DHT22;17595;50.884;4.346;2022-12-18T10:40:06;3.90;99.90
30893;DHT22;17595;50.884;4.346;2022-12-18T10:42:32;4.00;99.90
30893;DHT22;17595;50.884;4.346;2022-12-18T10:45:07;4.10;99.90
30893;DHT22;17595;50.884;4.346;2022-12-18T10:47:34;4.10;99.90
30893;DHT22;17595;50.884;4.346;2022-12-18T10:49:59;4.10;99.90
30893;DHT22;17595;50.884;4.346;2022-12-18T10:52:25;4.10;99.90
30893;DHT22;17595;50.884;4.346;2022-12-18T10:54:58;4.10;99.90
30893;DHT22;17595;50.884;4.346;2022-12-18T10:57:40;4.10;99.90
30893;DHT22;17595;50.884;4.346;2022-12-18T11:00:29;4.20;99.90
30893;DHT22;17595;50.884;4.346;2022-12-18T11:02:55;4.20;99.90
30893;DHT22;17595;50.884;4.346;2022-12-18T11:05:30;4.20;99.90
30893;DHT22;17595;50.884;4.346;2022-12-18T11:07:57;4.30;99.90
30893;DHT22;17595;50.884;4.346;2022-12-18T11:10:36;4.30;99.90
30893;DHT22;17595;50.884;4.346;2022-12-18T11:13:22;4.30;99.90
30893;DHT22;17595;50.884;4.346;2022-12-18T11:15:50;4.30;99.90
30893;DHT22;17595;50.884;4.346;2022-12-18T11:23:51;4.70;99.90
30893;DHT22;17595;50.884;4.346;2022-12-18T11:26:17;4.80;99.90
30893;DHT22;17595;50.884;4.346;2022-12-18T11:28:49;4.90;99.90
30893;DHT22;17595;50.884;4.346;2022-12-18T11:34:07;5.00;99.90
30893;DHT22;17595;50.884;4.346;2022-12-18T11:36:42;5.00;99.90
30893;DHT22;17595;50.884;4.346;2022-12-18T11:39:17;5.00;99.90
30893;DHT22;17595;50.884;4.346;2022-12-18T11:41:55;5.00;99.90
30893;DHT22;17595;50.884;4.346;2022-12-18T11:53:30;5.00;99.90
30893;DHT22;17595;50.884;4.346;2022-12-18T12:15:10;5.30;99.90
30893;DHT22;17595;50.884;4.346;2022-12-18T12:20:23;5.40;99.90
30893;DHT22;17595;50.884;4.346;2022-12-18T12:36:42;5.50;99.90
30893;DHT22;17595;50.884;4.346;2022-12-18T12:39:15;5.60;99.90
30893;DHT22;17595;50.884;4.346;2022-12-18T12:41:45;5.70;99.90
30893;DHT22;17595;50.884;4.346;2022-12-18T12:44:33;5.70;99.90
30893;DHT22;17595;50.884;4.346;2022-12-18T12:47:11;5.80;99.90
30893;DHT22;17595;50.884;4.346;2022-12-18T12:49:40;5.80;99.90
30893;DHT22;17595;50.884;4.346;2022-12-18T12:52:18;5.80;99.90
30893;DHT22;17595;50.884;4.346;2022-12-18T12:54:46;5.80;99.90
30893;DHT22;17595;50.884;4.346;2022-12-18T12:57:23;5.80;99.90
30893;DHT22;17595;50.884;4.346;2022-12-18T13:18:11;5.90;99.90
30893;DHT22;17595;50.884;4.346;2022-12-18T13:20:40;5.90;99.90
30893;DHT22;17595;50.884;4.346;2022-12-18T13:30:57;6.20;99.90
30893;DHT22;17595;50.884;4.346;2022-12-18T13:46:22;5.90;99.90
30893;DHT22;17595;50.884;4.346;2022-12-18T13:48:55;5.90;99.90
30893;DHT22;17595;50.884;4.346;2022-12-18T13:51:22;5.90;99.90
30893;DHT22;17595;50.884;4.346;2022-12-18T13:53:58;5.90;99.90
30893;DHT22;17595;50.884;4.346;2022-12-18T13:56:30;5.80;99.90
30893;DHT22;17595;50.884;4.346;2022-12-18T13:59:15;5.80;99.90
30893;DHT22;17595;50.884;4.346;2022-12-18T14:06:45;5.70;99.90
30893;DHT22;17595;50.884;4.346;2022-12-18T14:09:15;5.70;99.90
30893;DHT22;17595;50.884;4.346;2022-12-18T14:11:47;5.80;99.90
30893;DHT22;17595;50.884;4.346;2022-12-18T14:14:15;5.80;99.90
30893;DHT22;17595;50.884;4.346;2022-12-18T14:16:41;5.70;99.90
30893;DHT22;17595;50.884;4.346;2022-12-18T14:19:17;5.70;99.90
30893;DHT22;17595;50.884;4.346;2022-12-18T14:21:47;5.70;99.90
30893;DHT22;17595;50.884;4.346;2022-12-18T14:24:15;5.70;99.90
30893;DHT22;17595;50.884;4.346;2022-12-18T14:26:41;5.70;99.90
30893;DHT22;17595;50.884;4.346;2022-12-18T14:29:23;5.80;99.90
30893;DHT22;17595;50.884;4.346;2022-12-18T14:32:15;5.70;99.90
30893;DHT22;17595;50.884;4.346;2022-12-18T14:34:43;5.60;99.90
30893;DHT22;17595;50.884;4.346;2022-12-18T14:37:11;5.60;99.90
30893;DHT22;17595;50.884;4.346;2022-12-18T14:39:38;5.70;99.90
30893;DHT22;17595;50.884;4.346;2022-12-18T14:42:04;5.60;99.90
30893;DHT22;17595;50.884;4.346;2022-12-18T14:44:29;5.70;99.90
30893;DHT22;17595;50.884;4.346;2022-12-18T14:46:56;5.70;99.90
30893;DHT22;17595;50.884;4.346;2022-12-18T14:49:29;5.70;99.90
30893;DHT22;17595;50.884;4.346;2022-12-18T14:52:00;5.70;99.90
30893;DHT22;17595;50.884;4.346;2022-12-18T14:54:28;5.70;99.90
30893;DHT22;17595;50.884;4.346;2022-12-18T14:57:06;5.70;99.90
30893;DHT22;17595;50.884;4.346;2022-12-18T14:59:38;5.60;99.90
30893;DHT22;17595;50.884;4.346;2022-12-18T15:04:41;5.50;99.90
30893;DHT22;17595;50.884;4.346;2022-12-18T15:07:16;5.50;99.90
30893;DHT22;17595;50.884;4.346;2022-12-18T15:12:41;5.60;99.90
30893;DHT22;17595;50.884;4.346;2022-12-18T15:26:04;5.60;99.90
30893;DHT22;17595;50.884;4.346;2022-12-18T15:28:37;5.60;99.90
30893;DHT22;17595;50.884;4.346;2022-12-18T15:33:38;5.60;99.90
30893;DHT22;17595;50.884;4.346;2022-12-18T15:36:16;5.70;99.90
30893;DHT22;17595;50.884;4.346;2022-12-18T15:38:43;5.70;99.90
30893;DHT22;17595;50.884;4.346;2022-12-18T15:41:14;5.60;99.90
30893;DHT22;17595;50.884;4.346;2022-12-18T15:43:40;5.70;99.90
30893;DHT22;17595;50.884;4.346;2022-12-18T15:46:14;5.70;99.90
30893;DHT22;17595;50.884;4.346;2022-12-18T15:48:48;5.70;99.90
30893;DHT22;17595;50.884;4.346;2022-12-18T15:51:20;5.70;99.90
30893;DHT22;17595;50.884;4.346;2022-12-18T15:53:52;5.70;99.90
30893;DHT22;17595;50.884;4.346;2022-12-18T15:56:18;5.70;99.90
30893;DHT22;17595;50.884;4.346;2022-12-18T15:59:18;5.70;99.90
30893;DHT22;17595;50.884;4.346;2022-12-18T16:01:47;5.80;99.90
30893;DHT22;17595;50.884;4.346;2022-12-18T16:04:15;5.90;99.90
30893;DHT22;17595;50.884;4.346;2022-12-18T16:06:41;5.80;99.90
30893;DHT22;17595;50.884;4.346;2022-12-18T16:09:07;5.80;99.90
30893;DHT22;17595;50.884;4.346;2022-12-18T16:11:35;5.80;99.90
30893;DHT22;17595;50.884;4.346;2022-12-18T16:14:22;5.80;99.90
30893;DHT22;17595;50.884;4.346;2022-12-18T16:16:51;5.90;99.90
30893;DHT22;17595;50.884;4.346;2022-12-18T16:19:18;5.90;99.90
30893;DHT22;17595;50.884;4.346;2022-12-18T16:21:45;5.90;99.90
30893;DHT22;17595;50.884;4.346;2022-12-18T16:24:28;6.00;99.90
30893;DHT22;17595;50.884;4.346;2022-12-18T16:26:56;6.00;99.90
30893;DHT22;17595;50.884;4.346;2022-12-18T16:29:22;6.00;99.90
30893;DHT22;17595;50.884;4.346;2022-12-18T16:31:52;6.00;99.90
30893;DHT22;17595;50.884;4.346;2022-12-18T16:34:22;6.00;99.90
30893;DHT22;17595;50.884;4.346;2022-12-18T16:36:49;5.90;99.90
30893;DHT22;17595;50.884;4.346;2022-12-18T16:39:16;5.90;99.90
30893;DHT22;17595;50.884;4.346;2022-12-18T16:41:41;5.90;99.90
30893;DHT22;17595;50.884;4.346;2022-12-18T16:44:07;5.90;99.90
30893;DHT22;17595;50.884;4.346;2022-12-18T16:46:33;5.90;99.90
30893;DHT22;17595;50.884;4.346;2022-12-18T16:48:59;6.00;99.90
30893;DHT22;17595;50.884;4.346;2022-12-18T16:51:26;6.00;99.90
30893;DHT22;17595;50.884;4.346;2022-12-18T16:53:53;6.10;99.90
30893;DHT22;17595;50.884;4.346;2022-12-18T16:56:19;6.00;99.90
30893;DHT22;17595;50.884;4.346;2022-12-18T16:58:50;6.10;99.90
30893;DHT22;17595;50.884;4.346;2022-12-18T17:01:15;6.20;99.90
30893;DHT22;17595;50.884;4.346;2022-12-18T17:03:41;6.20;99.90
30893;DHT22;17595;50.884;4.346;2022-12-18T17:06:07;6.20;99.90
30893;DHT22;17595;50.884;4.346;2022-12-18T17:08:32;6.20;99.90
30893;DHT22;17595;50.884;4.346;2022-12-18T17:11:06;6.20;99.90
30893;DHT22;17595;50.884;4.346;2022-12-18T17:13:32;6.10;99.90
30893;DHT22;17595;50.884;4.346;2022-12-18T17:16:05;6.10;99.90
30893;DHT22;17595;50.884;4.346;2022-12-18T17:18:33;6.10;99.90
30893;DHT22;17595;50.884;4.346;2022-12-18T17:21:04;6.10;99.90
30893;DHT22;17595;50.884;4.346;2022-12-18T17:23:30;6.10;99.90
30893;DHT22;17595;50.884;4.346;2022-12-18T17:25:57;6.20;99.90
30893;DHT22;17595;50.884;4.346;2022-12-18T17:28:24;6.20;99.90
30893;DHT22;17595;50.884;4.346;2022-12-18T17:30:51;6.20;99.90
30893;DHT22;17595;50.884;4.346;2022-12-18T17:33:17;6.20;99.90
30893;DHT22;17595;50.884;4.346;2022-12-18T17:35:43;6.30;99.90
30893;DHT22;17595;50.884;4.346;2022-12-18T17:38:08;6.30;99.90
30893;DHT22;17595;50.884;4.346;2022-12-18T17:40:34;6.30;99.90
30893;DHT22;17595;50.884;4.346;2022-12-18T17:43:00;6.30;99.90
30893;DHT22;17595;50.884;4.346;2022-12-18T17:45:26;6.30;99.90
30893;DHT22;17595;50.884;4.346;2022-12-18T17:47:51;6.30;99.90
30893;DHT22;17595;50.884;4.346;2022-12-18T17:50:17;6.20;99.90
30893;DHT22;17595;50.884;4.346;2022-12-18T17:52:43;6.20;99.90
30893;DHT22;17595;50.884;4.346;2022-12-18T17:55:08;6.20;99.90
30893;DHT22;17595;50.884;4.346;2022-12-18T17:57:34;6.10;99.90
30893;DHT22;17595;50.884;4.346;2022-12-18T18:00:01;6.10;99.90
30893;DHT22;17595;50.884;4.346;2022-12-18T18:02:27;6.10;99.90
30893;DHT22;17595;50.884;4.346;2022-12-18T18:04:53;6.10;99.90
30893;DHT22;17595;50.884;4.346;2022-12-18T18:07:18;6.10;99.90
30893;DHT22;17595;50.884;4.346;2022-12-18T18:09:44;6.00;99.90
30893;DHT22;17595;50.884;4.346;2022-12-18T18:12:09;6.00;99.90
30893;DHT22;17595;50.884;4.346;2022-12-18T18:14:53;6.10;99.90
30893;DHT22;17595;50.884;4.346;2022-12-18T18:17:19;5.90;99.90
30893;DHT22;17595;50.884;4.346;2022-12-18T18:19:45;5.80;99.90
30893;DHT22;17595;50.884;4.346;2022-12-18T18:22:10;5.90;99.90
30893;DHT22;17595;50.884;4.346;2022-12-18T18:24:36;5.90;99.90
30893;DHT22;17595;50.884;4.346;2022-12-18T18:27:01;6.00;99.90
30893;DHT22;17595;50.884;4.346;2022-12-18T18:29:28;5.90;99.90
30893;DHT22;17595;50.884;4.346;2022-12-18T18:31:57;5.80;99.90
30893;DHT22;17595;50.884;4.346;2022-12-18T18:34:25;5.80;99.90